This is the latest recevied weather packets stored in our database for station/object KC0AFB. If no packets are shown the sender has not sent any weather packets the latest 10 day(s).
| Time | Temp. | Humidity | Pressure | Rain* | Wind** | Luminosity | Snow |
|---|---|---|---|---|---|---|---|
| 1778268608 | 18.89° C | 37% | 1008.3 hPa | 0 mm | - | 760 W/m² | - |
| 1778268304 | 19.44° C | 36% | 1008.4 hPa | 0 mm | - | 197 W/m² | - |
| 1778268001 | 18.89° C | 36% | 1008.5 hPa | 0 mm | - | 198 W/m² | - |
| 1778267698 | 18.89° C | 39% | 1008.6 hPa | 0 mm | - | 763 W/m² | - |
| 1778267395 | 18.33° C | 37% | 1008.6 hPa | 0 mm | - | 720 W/m² | - |
| 1778267092 | 18.89° C | 38% | 1008.6 hPa | 0 mm | - | 786 W/m² | - |
| 1778266788 | 18.89° C | 37% | 1008.6 hPa | 0 mm | - | 148 W/m² | - |
| 1778266486 | 18.89° C | 35% | 1008.8 hPa | 0 mm | - | 150 W/m² | - |
| 1778266183 | 19.44° C | 37% | 1008.8 hPa | 0 mm | - | 747 W/m² | - |
| 1778265881 | 19.44° C | 37% | 1008.8 hPa | 0 mm | - | 739 W/m² | - |
| 1778265577 | 18.89° C | 36% | 1008.8 hPa | 0 mm | - | 752 W/m² | - |
| 1778265274 | 18.89° C | 38% | 1008.9 hPa | 0 mm | - | 712 W/m² | - |
| 1778264969 | 18.89° C | 37% | 1008.7 hPa | 0 mm | - | 730 W/m² | - |
| 1778264666 | 18.89° C | 36% | 1008.8 hPa | 0 mm | - | 728 W/m² | - |
| 1778264361 | 18.33° C | 37% | 1008.9 hPa | 0 mm | - | 717 W/m² | - |
| 1778264058 | 18.89° C | 36% | 1008.7 hPa | 0 mm | - | 711 W/m² | - |
| 1778263756 | 18.33° C | 36% | 1008.9 hPa | 0 mm | - | 728 W/m² | - |
| 1778263452 | 18.89° C | 36% | 1008.8 hPa | 0 mm | - | 741 W/m² | - |
| 1778263148 | 18.33° C | 36% | 1008.9 hPa | 0 mm | - | 761 W/m² | - |
| 1778262845 | 18.89° C | 34% | 1009 hPa | 0 mm | - | 748 W/m² | - |
| 1778262543 | 18.33° C | 36% | 1009 hPa | 0 mm | - | 743 W/m² | - |
| 1778262240 | 18.33° C | 36% | 1009 hPa | 0 mm | - | 712 W/m² | - |
| 1778261936 | 18.33° C | 36% | 1009 hPa | 0 mm | - | 743 W/m² | - |
| 1778261634 | 18.33° C | 36% | 1009 hPa | 0 mm | - | 773 W/m² | - |
| 1778261329 | 18.33° C | 36% | 1009.3 hPa | 0 mm | - | 823 W/m² | - |
* Rain latest hour (hover to see other rain measurements)
** Current wind speed in m/s (hover to see current wind gust speed)